Time;durP1;ratioP1;P1;durP2;ratioP2;P2;SDS_P1;SDS_P2;PMS_P1;PMS_P2;Temp;Humidity;BMP_temperature;BMP_pressure;BME280_temperature;BME280_humidity;BME280_pressure;Samples;Min_cycle;Max_cycle;Signal;HPM_P1;HPM_P2
2023/10/03 00:00:12;;;;;;;;;;;;;;;17.05;96.33;100992.00;5092512;28;1246;-75
2023/10/03 00:02:37;;;;;;;;;;;;;;;17.03;96.82;100991.31;5092891;28;1071;-75
2023/10/03 00:05:03;;;;;;;;;;;;;;;16.98;96.80;100979.56;5092315;28;1179;-75
2023/10/03 00:07:28;;;;;;;;;;;;;;;16.95;96.45;100969.38;5087627;28;1395;-75
2023/10/03 00:09:53;;;;;;;;;;;;;;;16.93;96.63;100966.13;5092349;28;1345;-75
2023/10/03 00:12:18;;;;;;;;;;;;;;;16.90;96.56;100955.94;5091225;28;1448;-78
2023/10/03 00:14:44;;;;;;;;;;;;;;;16.89;96.57;100954.31;5091850;28;1886;-78
2023/10/03 00:17:09;;;;;;;;;;;;;;;16.89;97.14;100949.06;5093319;28;1130;-74
2023/10/03 00:19:34;;;;;;;;;;;;;;;16.89;96.78;100962.19;5088439;28;1243;-76
2023/10/03 00:21:59;;;;;;;;;;;;;;;16.91;96.91;100947.09;5090282;28;1260;-74
2023/10/03 00:24:25;;;;;;;;;;;;;;;16.92;96.67;100943.53;5093014;28;1176;-75
2023/10/03 00:26:53;;;;;;;;;;;;;;;16.93;96.70;100939.91;5084616;28;1228;-75
2023/10/03 00:29:23;;;;;;;;;;;;;;;16.92;96.86;100943.53;5084132;28;1104;-74
2023/10/03 00:31:49;;;;;;;;;;;;;;;16.88;97.00;100931.72;5095183;28;1142;-78
2023/10/03 00:34:15;;;;;;;;;;;;;;;16.86;97.03;100922.38;5090290;28;1954;-78
2023/10/03 00:36:41;;;;;;;;;;;;;;;16.86;97.18;100922.38;5091531;28;1130;-78
2023/10/03 00:39:06;;;;;;;;;;;;;;;16.87;96.88;100924.03;5089093;28;1135;-78
2023/10/03 00:41:34;;;;;;;;;;;;;;;16.89;97.10;100917.63;5088184;28;1333;-78
2023/10/03 00:44:03;;;;;;;;;;;;;;;16.91;96.94;100915.66;5083714;28;1482;-78
2023/10/03 00:46:30;;;;;;;;;;;;;;;16.92;96.94;100906.84;5087111;28;1130;-78
2023/10/03 00:48:55;;;;;;;;;;;;;;;16.94;96.90;100897.00;5082646;28;1138;-78
2023/10/03 00:51:21;;;;;;;;;;;;;;;16.96;97.00;100887.16;5087678;28;1083;-78
2023/10/03 00:53:47;;;;;;;;;;;;;;;16.98;96.99;100885.22;5086637;28;1968;-78
2023/10/03 00:56:14;;;;;;;;;;;;;;;17.01;96.88;100878.00;5092300;28;1333;-78
2023/10/03 00:58:41;;;;;;;;;;;;;;;17.02;96.80;100863.91;5097828;28;1186;-77
2023/10/03 01:01:09;;;;;;;;;;;;;;;17.03;96.77;100866.34;5099016;28;1211;-77
2023/10/03 01:03:38;;;;;;;;;;;;;;;17.05;96.62;100850.50;5097116;28;1223;-77
2023/10/03 01:06:07;;;;;;;;;;;;;;;17.06;96.50;100847.69;5096303;28;1294;-77
2023/10/03 01:08:36;;;;;;;;;;;;;;;17.09;96.59;100838.66;5096526;28;1218;-78
2023/10/03 01:11:02;;;;;;;;;;;;;;;17.10;96.28;100840.31;5091280;28;1224;-77
2023/10/03 01:13:29;;;;;;;;;;;;;;;17.11;96.34;100836.72;5092359;28;1901;-77
2023/10/03 01:15:55;;;;;;;;;;;;;;;17.12;96.35;100830.47;5087632;28;1168;-78
2023/10/03 01:18:21;;;;;;;;;;;;;;;17.12;96.26;100835.72;5093926;28;1233;-78
2023/10/03 01:20:50;;;;;;;;;;;;;;;17.12;96.11;100817.38;5091365;28;1180;-75
2023/10/03 01:23:16;;;;;;;;;;;;;;;17.12;96.09;100812.97;5087513;28;1147;-75
2023/10/03 01:25:43;;;;;;;;;;;;;;;17.12;96.31;100817.38;5092220;28;1347;-75
2023/10/03 01:28:11;;;;;;;;;;;;;;;17.11;96.16;100805.28;5087184;28;1128;-75
2023/10/03 01:30:37;;;;;;;;;;;;;;;17.11;96.21;100806.09;5091260;28;1104;-75
2023/10/03 01:33:03;;;;;;;;;;;;;;;17.12;96.06;100780.69;5088201;28;1212;-75
2023/10/03 01:35:28;;;;;;;;;;;;;;;17.13;95.95;100793.63;5088954;28;1987;-75
2023/10/03 01:37:53;;;;;;;;;;;;;;;17.14;96.07;100789.19;5085460;28;1070;-75
2023/10/03 01:40:19;;;;;;;;;;;;;;;17.14;96.12;100800.50;5078951;28;1330;-75
2023/10/03 01:42:45;;;;;;;;;;;;;;;17.16;96.09;100787.25;5083471;28;1497;-74
2023/10/03 01:45:21;;;;;;;;;;;;;;;17.16;95.80;100792.47;5084901;28;1490;-75
2023/10/03 01:47:49;;;;;;;;;;;;;;;17.17;95.91;100783.63;5087916;28;1147;-75
2023/10/03 01:50:17;;;;;;;;;;;;;;;17.17;95.69;100783.63;5085959;28;1207;-76
2023/10/03 01:52:42;;;;;;;;;;;;;;;17.16;95.69;100774.13;5080927;28;1163;-76
2023/10/03 01:55:09;;;;;;;;;;;;;;;17.15;95.83;100765.47;5085253;28;1998;-75
2023/10/03 01:57:35;;;;;;;;;;;;;;;17.16;95.79;100761.03;5086396;28;1194;-75
2023/10/03 02:00:00;;;;;;;;;;;;;;;17.15;95.59;100754.16;5086522;28;1227;-74
2023/10/03 02:02:25;;;;;;;;;;;;;;;17.15;95.58;100764.66;5093584;28;1230;-75
2023/10/03 02:04:50;;;;;;;;;;;;;;;17.14;95.57;100755.13;5091619;28;1319;-78
2023/10/03 02:07:16;;;;;;;;;;;;;;;17.14;95.52;100755.13;5094980;28;1179;-78
2023/10/03 02:09:41;;;;;;;;;;;;;;;17.12;95.63;100754.47;5088761;28;1230;-75
2023/10/03 02:12:06;;;;;;;;;;;;;;;17.12;95.76;100764.97;5089286;28;1132;-76
2023/10/03 02:14:32;;;;;;;;;;;;;;;17.10;95.58;100749.41;5090892;28;1956;-75
2023/10/03 02:16:57;;;;;;;;;;;;;;;17.12;95.60;100751.88;5092741;28;1111;-75
2023/10/03 02:19:23;;;;;;;;;;;;;;;17.11;95.70;100743.19;5087671;28;1280;-77
2023/10/03 02:21:48;;;;;;;;;;;;;;;17.13;95.72;100735.16;5086691;28;1358;-75
2023/10/03 02:24:13;;;;;;;;;;;;;;;17.14;95.52;100731.53;5092061;28;1151;-75
2023/10/03 02:26:41;;;;;;;;;;;;;;;17.16;95.64;100732.19;5104391;27;1426;-77
2023/10/03 02:29:06;;;;;;;;;;;;;;;17.18;95.62;100731.03;5088198;28;1182;-75
2023/10/03 02:31:33;;;;;;;;;;;;;;;17.22;95.25;100728.91;5086777;28;1202;-77
2023/10/03 02:34:02;;;;;;;;;;;;;;;17.26;94.96;100730.16;5090204;28;1987;-75
2023/10/03 02:36:27;;;;;;;;;;;;;;;17.28;95.11;100706.44;5084155;28;1477;-75
2023/10/03 02:38:52;;;;;;;;;;;;;;;17.29;95.18;100714.13;5086535;28;1222;-76
2023/10/03 02:41:19;;;;;;;;;;;;;;;17.30;94.98;100715.75;5086427;28;1423;-75
2023/10/03 02:43:46;;;;;;;;;;;;;;;17.32;94.89;100740.00;5078744;28;1263;-74
2023/10/03 02:46:12;;;;;;;;;;;;;;;17.32;95.19;100740.00;5086676;28;1333;-74
2023/10/03 02:48:38;;;;;;;;;;;;;;;17.34;94.97;100737.19;5085793;28;1320;-74
2023/10/03 02:51:05;;;;;;;;;;;;;;;17.33;94.93;100739.00;5084907;28;1139;-74
2023/10/03 02:53:31;;;;;;;;;;;;;;;17.35;94.82;100733.59;5085884;28;1905;-74
2023/10/03 02:55:58;;;;;;;;;;;;;;;17.36;94.88;100741.28;5085698;28;1074;-75
2023/10/03 02:58:23;;;;;;;;;;;;;;;17.39;94.88;100745.38;5085532;28;1593;-76
2023/10/03 03:00:53;;;;;;;;;;;;;;;17.44;94.78;100743.06;5086001;28;1167;-74
2023/10/03 03:03:18;;;;;;;;;;;;;;;17.46;94.63;100741.06;5083879;28;1154;-75
2023/10/03 03:05:44;;;;;;;;;;;;;;;17.50;94.69;100737.13;5086257;28;1191;-74
2023/10/03 03:10:45;;;;;;;;;;;;;;;17.52;94.65;100730.69;5089784;28;1377;-75
2023/10/03 03:13:13;;;;;;;;;;;;;;;17.55;94.70;100733.94;5096142;28;1199;-75
2023/10/03 03:15:40;;;;;;;;;;;;;;;17.58;94.64;100723.13;5093612;28;1965;-74
2023/10/03 03:18:05;;;;;;;;;;;;;;;17.59;94.38;100715.09;5085781;28;1236;-78
2023/10/03 03:20:37;;;;;;;;;;;;;;;17.60;94.30;100708.03;5082955;28;1377;-78
2023/10/03 03:23:03;;;;;;;;;;;;;;;17.63;94.23;100707.69;5085883;28;1310;-78
2023/10/03 03:25:38;;;;;;;;;;;;;;;17.65;94.33;100708.31;5092034;28;1652;-78
2023/10/03 03:28:12;;;;;;;;;;;;;;;17.68;94.27;100713.25;5079712;28;1171;-78
2023/10/03 03:30:38;;;;;;;;;;;;;;;17.70;94.13;100711.25;5083057;28;1338;-78
2023/10/03 03:33:06;;;;;;;;;;;;;;;17.73;94.11;100717.00;5087339;28;1163;-78
2023/10/03 03:35:35;;;;;;;;;;;;;;;17.75;94.03;100719.44;5086143;28;1909;-78
2023/10/03 03:38:04;;;;;;;;;;;;;;;17.77;93.97;100717.47;5099320;28;1242;-78
2023/10/03 03:40:29;;;;;;;;;;;;;;;17.79;93.98;100718.13;5090454;28;1147;-78
2023/10/03 03:42:58;;;;;;;;;;;;;;;17.83;93.91;100715.94;5085667;28;1215;-77
2023/10/03 03:45:25;;;;;;;;;;;;;;;17.87;93.63;100718.03;5085208;28;1207;-78
2023/10/03 03:47:51;;;;;;;;;;;;;;;17.89;93.56;100710.84;5090826;28;1246;-78
2023/10/03 03:50:17;;;;;;;;;;;;;;;17.94;93.46;100713.72;5088638;28;1244;-77
2023/10/03 03:52:42;;;;;;;;;;;;;;;17.95;93.48;100715.38;5090735;28;1368;-78
2023/10/03 03:55:08;;;;;;;;;;;;;;;17.95;93.52;100719.78;5104718;28;1905;-78
2023/10/03 03:57:33;;;;;;;;;;;;;;;17.93;93.51;100712.09;5089134;28;1163;-78
2023/10/03 03:59:59;;;;;;;;;;;;;;;17.93;93.55;100712.09;5087375;28;1322;-78
2023/10/03 04:02:24;;;;;;;;;;;;;;;17.92;93.75;100726.22;5087299;28;1429;-77
2023/10/03 04:04:49;;;;;;;;;;;;;;;17.92;93.79;100736.72;5089215;28;1173;-78
2023/10/03 04:07:14;;;;;;;;;;;;;;;17.92;93.73;100736.72;5084556;28;1180;-78
2023/10/03 04:09:39;;;;;;;;;;;;;;;17.92;93.63;100736.72;5087448;28;1259;-78
2023/10/03 04:12:05;;;;;;;;;;;;;;;17.92;93.70;100736.72;5085122;28;1251;-77
2023/10/03 04:14:30;;;;;;;;;;;;;;;17.91;93.90;100750.81;5087226;28;1894;-78
2023/10/03 04:16:56;;;;;;;;;;;;;;;17.92;93.86;100744.59;5085271;28;1178;-78
2023/10/03 04:19:21;;;;;;;;;;;;;;;17.92;93.93;100752.44;5089868;28;1126;-77
2023/10/03 04:21:46;;;;;;;;;;;;;;;17.91;93.85;100766.56;5087788;28;1386;-78
2023/10/03 04:24:12;;;;;;;;;;;;;;;17.96;93.82;100771.31;5090121;28;1242;-78
2023/10/03 04:26:41;;;;;;;;;;;;;;;17.95;93.70;100769.63;5091674;28;1304;-78
2023/10/03 04:29:08;;;;;;;;;;;;;;;18.01;93.23;100777.66;5085750;28;1100;-78
2023/10/03 04:31:33;;;;;;;;;;;;;;;18.11;92.87;100773.97;5086701;28;1225;-76
2023/10/03 04:33:59;;;;;;;;;;;;;;;18.03;92.73;100786.16;5089875;28;1984;-75
2023/10/03 04:36:25;;;;;;;;;;;;;;;18.02;92.87;100779.28;5091211;28;1176;-74
2023/10/03 04:38:51;;;;;;;;;;;;;;;18.01;92.55;100774.22;5094062;28;1469;-75
2023/10/03 04:41:17;;;;;;;;;;;;;;;17.94;92.76;100789.81;5085841;28;1428;-75
2023/10/03 04:43:42;;;;;;;;;;;;;;;17.94;92.59;100781.94;5083900;28;1221;-75
2023/10/03 04:46:08;;;;;;;;;;;;;;;17.90;92.83;100788.56;5091456;28;1213;-76
2023/10/03 04:48:33;;;;;;;;;;;;;;;17.88;92.25;100787.06;5083986;28;1285;-75
2023/10/03 04:50:59;;;;;;;;;;;;;;;17.88;92.51;100787.88;5084232;28;2369;-75
2023/10/03 04:53:24;;;;;;;;;;;;;;;17.86;92.51;100800.38;5088633;28;1277;-78
2023/10/03 04:55:49;;;;;;;;;;;;;;;17.87;92.44;100801.19;5092612;28;1898;-77
2023/10/03 04:58:15;;;;;;;;;;;;;;;17.84;92.58;100802.38;5098223;28;1158;-77
2023/10/03 05:00:42;;;;;;;;;;;;;;;17.78;92.75;100806.50;5097876;28;1397;-77
2023/10/03 05:03:10;;;;;;;;;;;;;;;17.77;92.77;100796.16;5098817;28;1115;-78
2023/10/03 05:05:36;;;;;;;;;;;;;;;17.71;92.73;100809.94;5091205;28;1340;-78
2023/10/03 05:08:02;;;;;;;;;;;;;;;17.74;92.80;100796.53;5099188;28;1256;-78
2023/10/03 05:10:29;;;;;;;;;;;;;;;17.68;92.62;100803.25;5095700;28;1293;-77
2023/10/03 05:12:54;;;;;;;;;;;;;;;17.62;92.64;100805.72;5097461;28;1285;-76
2023/10/03 05:15:20;;;;;;;;;;;;;;;17.60;92.67;100789.34;5088476;28;1890;-78
2023/10/03 05:17:45;;;;;;;;;;;;;;;17.53;92.73;100784.78;5091185;28;1210;-78
2023/10/03 05:20:13;;;;;;;;;;;;;;;17.58;92.54;100783.44;5087029;28;1470;-77
2023/10/03 05:22:40;;;;;;;;;;;;;;;17.49;92.82;100794.00;5082515;28;1452;-78
2023/10/03 05:25:07;;;;;;;;;;;;;;;17.49;92.93;100798.41;5087303;28;1226;-77
2023/10/03 05:27:32;;;;;;;;;;;;;;;17.46;92.95;100810.06;5087062;28;1435;-78
2023/10/03 05:29:59;;;;;;;;;;;;;;;17.43;93.14;100820.91;5088202;28;1258;-78
2023/10/03 05:32:26;;;;;;;;;;;;;;;17.42;93.12;100827.09;5085365;28;1163;-78
2023/10/03 05:34:52;;;;;;;;;;;;;;;17.40;93.06;100828.28;5089415;28;1897;-78
2023/10/03 05:37:17;;;;;;;;;;;;;;;17.42;93.09;100829.72;5087338;27;1178;-78
2023/10/03 05:39:42;;;;;;;;;;;;;;;17.42;93.29;100824.47;5082418;28;983;-78
2023/10/03 05:42:08;;;;;;;;;;;;;;;17.34;93.49;100827.16;5080530;28;1155;-78
2023/10/03 05:44:37;;;;;;;;;;;;;;;17.34;93.34;100835.00;5083045;28;1365;-78
2023/10/03 05:47:03;;;;;;;;;;;;;;;17.38;93.44;100833.69;5082024;28;1356;-77
2023/10/03 05:49:28;;;;;;;;;;;;;;;17.37;93.60;100826.78;5085130;28;1359;-78
2023/10/03 05:51:55;;;;;;;;;;;;;;;17.37;93.70;100842.53;5082749;28;1152;-78
2023/10/03 05:54:21;;;;;;;;;;;;;;;17.37;93.94;100844.34;5089484;28;1905;-78
2023/10/03 05:56:46;;;;;;;;;;;;;;;17.39;94.11;100850.25;5086747;28;1211;-78
2023/10/03 05:59:12;;;;;;;;;;;;;;;17.37;93.78;100837.28;5091660;28;1127;-77
2023/10/03 06:01:38;;;;;;;;;;;;;;;17.37;94.08;100842.53;5086923;28;1428;-78
2023/10/03 06:04:03;;;;;;;;;;;;;;;17.38;94.18;100859.91;5084379;28;1293;-78
2023/10/03 06:06:28;;;;;;;;;;;;;;;17.39;94.00;100856.31;5085469;28;1269;-77
2023/10/03 06:08:54;;;;;;;;;;;;;;;17.40;94.38;100857.94;5086769;28;1141;-78
2023/10/03 06:11:19;;;;;;;;;;;;;;;17.40;94.25;100855.31;5091234;28;1202;-78
2023/10/03 06:13:44;;;;;;;;;;;;;;;17.43;94.50;100841.88;5091058;28;1905;-78
2023/10/03 06:16:12;;;;;;;;;;;;;;;17.40;94.46;100852.69;5087195;28;1218;-78
2023/10/03 06:18:39;;;;;;;;;;;;;;;17.40;94.34;100863.19;5086704;28;1421;-77
2023/10/03 06:21:05;;;;;;;;;;;;;;;17.43;94.57;100857.59;5083094;28;1205;-78
2023/10/03 06:23:30;;;;;;;;;;;;;;;17.41;94.43;100864.81;5086534;28;1432;-78
2023/10/03 06:25:55;;;;;;;;;;;;;;;17.45;94.38;100866.13;5088836;28;1187;-78
2023/10/03 06:28:21;;;;;;;;;;;;;;;17.45;94.66;100860.88;5088448;28;1234;-78
2023/10/03 06:30:47;;;;;;;;;;;;;;;17.46;94.88;100864.31;5086083;28;1263;-77
2023/10/03 06:33:12;;;;;;;;;;;;;;;17.45;95.18;100867.91;5091207;28;1305;-78
2023/10/03 06:35:37;;;;;;;;;;;;;;;17.47;94.88;100874.63;5087782;28;1982;-78
2023/10/03 06:38:03;;;;;;;;;;;;;;;17.45;94.86;100881.84;5088088;28;1302;-78
2023/10/03 06:40:28;;;;;;;;;;;;;;;17.50;95.18;100887.41;5083051;28;951;-78
2023/10/03 06:42:53;;;;;;;;;;;;;;;17.48;95.13;100883.31;5084073;28;1309;-78
2023/10/03 06:45:21;;;;;;;;;;;;;;;17.48;95.63;100886.75;5086696;28;1181;-78
2023/10/03 06:47:46;;;;;;;;;;;;;;;17.49;95.56;100877.91;5086803;28;1447;-78
2023/10/03 06:50:14;;;;;;;;;;;;;;;17.55;95.53;100888.69;5082988;28;1957;-78
2023/10/03 06:52:40;;;;;;;;;;;;;;;17.51;95.58;100875.94;5087834;28;1192;-78
2023/10/03 06:55:05;;;;;;;;;;;;;;;17.53;95.65;100894.91;5084748;28;1968;-78
2023/10/03 06:57:32;;;;;;;;;;;;;;;17.56;95.83;100896.41;5094876;28;1344;-78
2023/10/03 06:59:57;;;;;;;;;;;;;;;17.59;95.54;100887.38;5092794;28;1545;-78
2023/10/03 07:02:22;;;;;;;;;;;;;;;17.60;95.62;100895.06;5086689;28;1043;-78
2023/10/03 07:04:47;;;;;;;;;;;;;;;17.62;95.50;100897.53;5088170;28;1235;-78
2023/10/03 07:07:13;;;;;;;;;;;;;;;17.64;95.83;100901.59;5090691;28;1149;-78
2023/10/03 07:09:38;;;;;;;;;;;;;;;17.67;95.59;100921.47;5089473;28;1084;-77
2023/10/03 07:12:04;;;;;;;;;;;;;;;17.70;95.48;100921.09;5089324;28;1146;-78
2023/10/03 07:14:30;;;;;;;;;;;;;;;17.74;95.53;100930.31;5091596;28;1909;-78
2023/10/03 07:16:56;;;;;;;;;;;;;;;17.72;95.27;100924.41;5093417;28;1211;-78
2023/10/03 07:19:21;;;;;;;;;;;;;;;17.71;95.18;100930.59;5086225;28;1170;-78
2023/10/03 07:21:46;;;;;;;;;;;;;;;17.70;95.22;100931.59;5084950;28;1209;-78
2023/10/03 07:24:12;;;;;;;;;;;;;;;17.73;95.20;100936.56;5088007;28;1369;-78
2023/10/03 07:26:38;;;;;;;;;;;;;;;17.72;95.09;100940.13;5086540;28;1162;-78
2023/10/03 07:29:04;;;;;;;;;;;;;;;17.76;95.12;100936.19;5090247;28;1259;-78
2023/10/03 07:31:30;;;;;;;;;;;;;;;17.75;94.69;100921.44;5087481;28;1118;-79
2023/10/03 07:33:56;;;;;;;;;;;;;;;17.75;94.95;100929.31;5089280;28;1902;-78
2023/10/03 07:36:21;;;;;;;;;;;;;;;17.74;94.74;100946.03;5095173;28;1142;-78
2023/10/03 07:38:46;;;;;;;;;;;;;;;17.75;95.02;100950.31;5092057;28;1490;-78
2023/10/03 07:41:17;;;;;;;;;;;;;;;17.90;94.64;100932.88;5094038;28;1115;-79
2023/10/03 07:43:47;;;;;;;;;;;;;;;17.72;95.25;100945.38;5094171;28;1194;-78
2023/10/03 07:46:13;;;;;;;;;;;;;;;17.71;95.13;100955.03;5093517;28;1096;-78
2023/10/03 07:48:38;;;;;;;;;;;;;;;17.65;95.93;100970.63;5095191;28;1221;-78
2023/10/03 07:51:05;;;;;;;;;;;;;;;17.61;95.94;100971.97;5091282;28;1216;-78
2023/10/03 07:53:30;;;;;;;;;;;;;;;17.59;95.65;100966.88;5093174;28;1448;-78
2023/10/03 07:55:56;;;;;;;;;;;;;;;17.59;95.21;100987.03;5093557;28;2008;-76
2023/10/03 07:58:22;;;;;;;;;;;;;;;17.50;95.31;100989.69;5090676;28;1218;-76
2023/10/03 08:00:47;;;;;;;;;;;;;;;17.49;95.48;100993.28;5099379;28;1035;-75
2023/10/03 08:03:12;;;;;;;;;;;;;;;17.47;95.64;100994.44;5092931;28;1181;-77
2023/10/03 08:05:38;;;;;;;;;;;;;;;17.48;95.47;101006.56;5093491;28;1061;-74
2023/10/03 08:08:04;;;;;;;;;;;;;;;17.46;95.52;101019.84;5098772;28;1143;-77
2023/10/03 08:10:30;;;;;;;;;;;;;;;17.46;95.63;101006.72;5093001;28;1261;-75
2023/10/03 08:12:55;;;;;;;;;;;;;;;17.43;95.32;101012.31;5091337;27;1185;-75
2023/10/03 08:15:22;;;;;;;;;;;;;;;17.43;95.65;101020.19;5093122;28;1972;-75
2023/10/03 08:17:48;;;;;;;;;;;;;;;17.42;96.11;101023.75;5097129;28;1143;-75
2023/10/03 08:20:15;;;;;;;;;;;;;;;17.38;95.74;101038.19;5091288;28;1291;-76
2023/10/03 08:22:41;;;;;;;;;;;;;;;17.38;95.92;101053.94;5089948;28;1209;-75
2023/10/03 08:25:07;;;;;;;;;;;;;;;17.33;96.05;101050.16;5093750;27;1167;-75
2023/10/03 08:27:32;;;;;;;;;;;;;;;17.31;96.16;101066.03;5098411;28;1196;-75
2023/10/03 08:29:58;;;;;;;;;;;;;;;17.32;96.00;101059.84;5098269;28;1150;-74
2023/10/03 08:32:25;;;;;;;;;;;;;;;17.33;95.81;101055.41;5092848;28;1310;-75
2023/10/03 08:34:50;;;;;;;;;;;;;;;17.33;95.46;101069.34;5093853;28;1969;-74
2023/10/03 08:37:21;;;;;;;;;;;;;;;17.27;95.46;101077.84;5094896;28;1156;-76
2023/10/03 08:39:50;;;;;;;;;;;;;;;17.23;95.62;101081.78;5098514;28;1174;-75
2023/10/03 08:42:17;;;;;;;;;;;;;;;17.20;96.08;101118.78;5088356;28;1193;-77
2023/10/03 08:44:55;;;;;;;;;;;;;;;17.12;98.07;101129.25;5092935;28;1229;-74
2023/10/03 08:47:28;;;;;;;;;;;;;;;17.00;96.92;101128.75;5091480;28;1213;-74
2023/10/03 08:49:56;;;;;;;;;;;;;;;16.85;97.63;101135.56;5089217;28;1130;-74
2023/10/03 08:52:24;;;;;;;;;;;;;;;16.83;98.52;101137.53;5089974;28;1344;-75
2023/10/03 08:54:54;;;;;;;;;;;;;;;16.74;99.19;101139.28;5087884;28;1902;-74
2023/10/03 08:57:23;;;;;;;;;;;;;;;16.61;100.00;101144.09;5086061;28;1170;-75
2023/10/03 08:59:48;;;;;;;;;;;;;;;16.56;99.84;101151.59;5080120;28;1276;-74
2023/10/03 09:02:14;;;;;;;;;;;;;;;16.50;100.00;101154.84;5085488;28;1635;-76
2023/10/03 09:04:40;;;;;;;;;;;;;;;16.41;100.00;101167.91;5090523;28;1335;-74
2023/10/03 09:07:11;;;;;;;;;;;;;;;16.38;100.00;101181.28;5088463;28;1166;-76
2023/10/03 09:09:41;;;;;;;;;;;;;;;16.33;100.00;101172.25;5095933;28;1193;-75
2023/10/03 09:12:08;;;;;;;;;;;;;;;16.35;100.00;101176.38;5092944;28;1166;-74
2023/10/03 09:14:36;;;;;;;;;;;;;;;16.31;100.00;101172.41;5091079;28;1972;-77
2023/10/03 09:17:03;;;;;;;;;;;;;;;16.33;100.00;101187.97;5097744;28;1221;-75
2023/10/03 09:19:41;;;;;;;;;;;;;;;16.35;100.00;101175.56;5087146;28;1067;-74
2023/10/03 09:22:07;;;;;;;;;;;;;;;16.43;100.00;101180.84;5087220;28;1092;-74
2023/10/03 09:24:43;;;;;;;;;;;;;;;16.38;100.00;101185.72;5090119;28;1185;-74
2023/10/03 09:27:09;;;;;;;;;;;;;;;16.46;100.00;101189.22;5093271;28;1131;-75
2023/10/03 09:29:34;;;;;;;;;;;;;;;16.54;100.00;101200.72;5092245;28;1247;-75
2023/10/03 09:32:07;;;;;;;;;;;;;;;16.54;100.00;101206.75;5088900;28;1170;-74
2023/10/03 09:34:34;;;;;;;;;;;;;;;16.52;100.00;101206.09;5086162;28;1898;-75
2023/10/03 09:37:04;;;;;;;;;;;;;;;16.55;100.00;101199.72;5089591;28;1233;-74
2023/10/03 09:39:30;;;;;;;;;;;;;;;16.57;100.00;101218.72;5105059;27;1369;-74
2023/10/03 09:41:55;;;;;;;;;;;;;;;16.50;100.00;101241.25;5086671;28;1033;-74
2023/10/03 09:44:29;;;;;;;;;;;;;;;16.52;100.00;101250.63;5091376;28;1092;-76
2023/10/03 09:46:55;;;;;;;;;;;;;;;16.41;100.00;101259.53;5090698;28;1203;-77
2023/10/03 09:49:26;;;;;;;;;;;;;;;16.60;98.67;101242.81;5092261;28;1096;-77
2023/10/03 09:51:51;;;;;;;;;;;;;;;16.21;99.63;101252.81;5084817;28;1123;-76
2023/10/03 09:54:30;;;;;;;;;;;;;;;16.16;99.84;101255.88;5087870;28;1957;-74
2023/10/03 09:56:57;;;;;;;;;;;;;;;16.08;99.92;101275.94;5087265;28;1220;-75
2023/10/03 09:59:24;;;;;;;;;;;;;;;16.01;100.00;101277.53;5087060;28;1264;-75
2023/10/03 10:01:54;;;;;;;;;;;;;;;16.00;100.00;101275.84;5086147;28;1147;-75
2023/10/03 10:04:20;;;;;;;;;;;;;;;16.01;100.00;101274.91;5085093;28;1401;-75
2023/10/03 10:06:54;;;;;;;;;;;;;;;16.04;99.79;101271.97;5086533;28;1125;-76
2023/10/03 10:09:28;;;;;;;;;;;;;;;15.98;98.81;101285.66;5083036;28;1114;-74
2023/10/03 10:12:20;;;;;;;;;;;;;;;16.05;98.67;101274.44;5086615;28;1501;-75
2023/10/03 10:15:00;;;;;;;;;;;;;;;16.04;98.38;101274.59;5090535;28;1897;-75
2023/10/03 10:17:39;;;;;;;;;;;;;;;15.98;97.13;101283.03;5088641;28;1147;-76
2023/10/03 10:20:38;;;;;;;;;;;;;;;16.04;95.77;101298.16;5087178;28;1134;-75
2023/10/03 10:23:13;;;;;;;;;;;;;;;16.02;97.31;101305.31;5090377;28;1170;-75
2023/10/03 10:25:42;;;;;;;;;;;;;;;15.99;97.13;101321.31;5086526;28;1143;-76
2023/10/03 10:28:08;;;;;;;;;;;;;;;16.00;97.22;101322.94;5095393;28;1182;-75
2023/10/03 10:30:34;;;;;;;;;;;;;;;16.03;97.46;101327.91;5085062;28;1321;-74
2023/10/03 10:33:31;;;;;;;;;;;;;;;15.96;96.59;101337.31;5088817;28;1268;-74
2023/10/03 10:36:03;;;;;;;;;;;;;;;15.95;97.35;101338.28;5060932;28;1898;-75
2023/10/03 10:38:31;;;;;;;;;;;;;;;15.96;97.44;101353.03;5086681;28;1517;-75
2023/10/03 10:41:11;;;;;;;;;;;;;;;15.89;97.16;101353.59;5081334;28;1041;-75
2023/10/03 10:43:56;;;;;;;;;;;;;;;15.92;97.59;101363.75;5081513;28;1178;-75
2023/10/03 10:46:38;;;;;;;;;;;;;;;15.89;97.49;101361.47;5088085;28;1223;-74
2023/10/03 10:49:06;;;;;;;;;;;;;;;15.77;98.04;101370.47;5088137;28;1382;-74
2023/10/03 10:51:32;;;;;;;;;;;;;;;15.66;98.75;101381.13;5083529;28;1231;-75
2023/10/03 10:53:57;;;;;;;;;;;;;;;15.62;99.50;101371.88;5086155;28;1914;-74
2023/10/03 10:56:25;;;;;;;;;;;;;;;15.61;99.84;101372.84;5098276;27;1350;-75
2023/10/03 10:59:04;;;;;;;;;;;;;;;15.64;99.39;101380.44;5089953;28;1278;-74
2023/10/03 11:01:29;;;;;;;;;;;;;;;15.65;100.00;101382.06;5087523;28;1264;-75
2023/10/03 11:03:56;;;;;;;;;;;;;;;15.70;99.98;101384.25;5085932;28;1643;-74
2023/10/03 11:06:23;;;;;;;;;;;;;;;15.60;99.83;101390.34;5083786;28;1260;-75
2023/10/03 11:08:49;;;;;;;;;;;;;;;15.62;100.00;101395.41;5084021;27;1163;-76
2023/10/03 11:11:14;;;;;;;;;;;;;;;15.65;100.00;101392.53;5100992;27;1252;-75
2023/10/03 11:13:46;;;;;;;;;;;;;;;15.68;100.00;101402.72;5084248;28;1085;-74
2023/10/03 11:16:11;;;;;;;;;;;;;;;15.61;100.00;101399.81;5084540;28;1298;-74
2023/10/03 11:18:36;;;;;;;;;;;;;;;15.46;100.00;101403.84;5087742;28;1472;-76
2023/10/03 11:21:05;;;;;;;;;;;;;;;15.53;100.00;101398.88;5088328;28;1275;-77
2023/10/03 11:23:30;;;;;;;;;;;;;;;15.43;100.00;101408.56;5085135;28;1238;-78
2023/10/03 11:25:56;;;;;;;;;;;;;;;15.44;100.00;101412.81;5090233;28;1363;-77
2023/10/03 11:28:22;;;;;;;;;;;;;;;15.40;100.00;101425.34;5085273;28;1249;-77
2023/10/03 11:31:03;;;;;;;;;;;;;;;15.36;100.00;101424.78;5079070;28;1584;-77
2023/10/03 11:33:40;;;;;;;;;;;;;;;15.29;100.00;101418.50;5085948;28;1302;-77
2023/10/03 11:36:07;;;;;;;;;;;;;;;15.26;100.00;101431.84;5087863;28;1914;-78
2023/10/03 11:38:42;;;;;;;;;;;;;;;15.21;100.00;101434.06;5086950;28;1169;-77
2023/10/03 11:41:08;;;;;;;;;;;;;;;15.15;100.00;101450.31;5080366;28;1288;-78
2023/10/03 11:43:42;;;;;;;;;;;;;;;15.04;100.00;101450.44;5079043;28;1227;-77
2023/10/03 11:46:10;;;;;;;;;;;;;;;14.97;100.00;101450.19;5103447;28;1155;-77
2023/10/03 11:48:36;;;;;;;;;;;;;;;14.85;100.00;101449.50;5102014;28;1514;-78
2023/10/03 11:51:01;;;;;;;;;;;;;;;14.84;100.00;101460.88;5082189;28;1159;-77
2023/10/03 11:53:26;;;;;;;;;;;;;;;14.81;100.00;101465.56;5084581;28;1163;-78
2023/10/03 11:55:52;;;;;;;;;;;;;;;14.75;100.00;101472.16;5088425;28;1981;-78
2023/10/03 11:58:18;;;;;;;;;;;;;;;14.91;100.00;101476.84;5087172;28;1436;-78
2023/10/03 12:00:44;;;;;;;;;;;;;;;14.77;100.00;101475.47;5090507;28;1274;-78
2023/10/03 12:03:09;;;;;;;;;;;;;;;14.87;100.00;101491.13;5085506;28;1461;-78
2023/10/03 12:05:36;;;;;;;;;;;;;;;14.71;100.00;101502.13;5087447;28;1154;-78
2023/10/03 12:08:03;;;;;;;;;;;;;;;14.65;100.00;101513.09;5086839;28;1206;-78
2023/10/03 12:10:31;;;;;;;;;;;;;;;14.63;100.00;101503.78;5086512;28;1081;-78
2023/10/03 12:12:56;;;;;;;;;;;;;;;14.65;100.00;101518.31;5086545;28;1338;-78
2023/10/03 12:15:23;;;;;;;;;;;;;;;14.54;100.00;101515.81;5081186;28;1913;-77
2023/10/03 12:17:48;;;;;;;;;;;;;;;14.47;100.00;101522.53;5080721;28;1169;-77
2023/10/03 12:20:16;;;;;;;;;;;;;;;14.46;100.00;101523.47;5084839;28;1506;-77
2023/10/03 12:22:46;;;;;;;;;;;;;;;14.45;100.00;101537.47;5083559;28;1153;-77
2023/10/03 12:25:12;;;;;;;;;;;;;;;14.44;100.00;101531.41;5089279;28;1395;-77
2023/10/03 12:27:38;;;;;;;;;;;;;;;14.37;100.00;101540.75;5088794;28;1329;-77
2023/10/03 12:30:06;;;;;;;;;;;;;;;14.55;100.00;101548.78;5090470;28;1289;-77
2023/10/03 12:32:34;;;;;;;;;;;;;;;14.38;100.00;101562.44;5080475;28;1000;-77
2023/10/03 12:35:00;;;;;;;;;;;;;;;14.37;100.00;101572.06;5096047;28;1902;-77
2023/10/03 12:37:25;;;;;;;;;;;;;;;14.34;100.00;101582.78;5091915;28;1284;-77
2023/10/03 12:39:50;;;;;;;;;;;;;;;14.18;100.00;101588.47;5093766;28;1121;-77
2023/10/03 12:42:16;;;;;;;;;;;;;;;14.18;100.00;101588.47;5084392;28;1169;-77
2023/10/03 12:44:41;;;;;;;;;;;;;;;14.16;100.00;101598.19;5088308;28;1193;-77
2023/10/03 12:47:06;;;;;;;;;;;;;;;14.17;100.00;101589.44;5090602;28;1175;-78